sensor_id;sensor_type;location;lat;lon;timestamp;temperature;humidity
19110;DHT22;9687;50.836;12.060;2023-09-18T00:00:51;23.60;67.70
19110;DHT22;9687;50.836;12.060;2023-09-18T00:03:22;23.60;67.80
19110;DHT22;9687;50.836;12.060;2023-09-18T00:05:58;23.60;68.00
19110;DHT22;9687;50.836;12.060;2023-09-18T00:08:45;23.60;68.10
19110;DHT22;9687;50.836;12.060;2023-09-18T00:11:20;23.60;68.20
19110;DHT22;9687;50.836;12.060;2023-09-18T00:14:01;23.60;68.20
19110;DHT22;9687;50.836;12.060;2023-09-18T00:16:33;23.60;68.40
19110;DHT22;9687;50.836;12.060;2023-09-18T00:19:05;23.60;68.30
19110;DHT22;9687;50.836;12.060;2023-09-18T00:21:41;23.60;68.40
19110;DHT22;9687;50.836;12.060;2023-09-18T00:24:14;23.60;68.40
19110;DHT22;9687;50.836;12.060;2023-09-18T00:26:46;23.60;68.40
19110;DHT22;9687;50.836;12.060;2023-09-18T00:29:22;23.60;68.50
19110;DHT22;9687;50.836;12.060;2023-09-18T00:31:55;23.60;68.40
19110;DHT22;9687;50.836;12.060;2023-09-18T00:34:40;23.60;68.40
19110;DHT22;9687;50.836;12.060;2023-09-18T00:37:09;23.60;68.60
19110;DHT22;9687;50.836;12.060;2023-09-18T00:39:41;23.60;68.60
19110;DHT22;9687;50.836;12.060;2023-09-18T00:42:14;23.60;68.80
19110;DHT22;9687;50.836;12.060;2023-09-18T00:44:48;23.60;68.70
19110;DHT22;9687;50.836;12.060;2023-09-18T00:47:38;23.60;68.70
19110;DHT22;9687;50.836;12.060;2023-09-18T00:50:19;23.60;68.80
19110;DHT22;9687;50.836;12.060;2023-09-18T00:52:54;23.60;68.90
19110;DHT22;9687;50.836;12.060;2023-09-18T00:55:26;23.60;69.00
19110;DHT22;9687;50.836;12.060;2023-09-18T00:58:00;23.60;69.00
19110;DHT22;9687;50.836;12.060;2023-09-18T01:00:36;23.60;69.00
19110;DHT22;9687;50.836;12.060;2023-09-18T01:03:07;23.60;69.10
19110;DHT22;9687;50.836;12.060;2023-09-18T01:05:39;23.50;69.00
19110;DHT22;9687;50.836;12.060;2023-09-18T01:08:16;23.50;69.00
19110;DHT22;9687;50.836;12.060;2023-09-18T01:10:47;23.50;69.10
19110;DHT22;9687;50.836;12.060;2023-09-18T01:13:23;23.50;69.30
19110;DHT22;9687;50.836;12.060;2023-09-18T01:16:02;23.50;69.20
19110;DHT22;9687;50.836;12.060;2023-09-18T01:18:38;23.50;69.10
19110;DHT22;9687;50.836;12.060;2023-09-18T01:21:19;23.50;69.20
19110;DHT22;9687;50.836;12.060;2023-09-18T01:23:48;23.40;69.10
19110;DHT22;9687;50.836;12.060;2023-09-18T01:26:30;23.40;69.20
19110;DHT22;9687;50.836;12.060;2023-09-18T01:29:02;23.40;69.30
19110;DHT22;9687;50.836;12.060;2023-09-18T01:31:48;23.40;69.30
19110;DHT22;9687;50.836;12.060;2023-09-18T01:34:18;23.30;69.50
19110;DHT22;9687;50.836;12.060;2023-09-18T01:36:45;23.30;69.60
19110;DHT22;9687;50.836;12.060;2023-09-18T01:39:16;23.20;69.50
19110;DHT22;9687;50.836;12.060;2023-09-18T01:41:47;23.10;69.50
19110;DHT22;9687;50.836;12.060;2023-09-18T01:44:15;23.10;69.70
19110;DHT22;9687;50.836;12.060;2023-09-18T01:46:49;23.00;69.70
19110;DHT22;9687;50.836;12.060;2023-09-18T01:49:23;23.00;69.90
19110;DHT22;9687;50.836;12.060;2023-09-18T01:51:53;22.90;69.90
19110;DHT22;9687;50.836;12.060;2023-09-18T01:54:39;22.90;70.10
19110;DHT22;9687;50.836;12.060;2023-09-18T01:57:13;22.80;70.20
19110;DHT22;9687;50.836;12.060;2023-09-18T01:59:40;22.80;70.30
19110;DHT22;9687;50.836;12.060;2023-09-18T02:02:27;22.70;70.20
19110;DHT22;9687;50.836;12.060;2023-09-18T02:05:04;22.70;70.30
19110;DHT22;9687;50.836;12.060;2023-09-18T02:07:37;22.60;70.30
19110;DHT22;9687;50.836;12.060;2023-09-18T02:10:24;22.60;70.50
19110;DHT22;9687;50.836;12.060;2023-09-18T02:13:10;22.50;70.60
19110;DHT22;9687;50.836;12.060;2023-09-18T02:15:37;22.40;70.80
19110;DHT22;9687;50.836;12.060;2023-09-18T02:18:05;22.40;70.80
19110;DHT22;9687;50.836;12.060;2023-09-18T02:20:39;22.30;71.10
19110;DHT22;9687;50.836;12.060;2023-09-18T02:23:20;22.20;71.40
19110;DHT22;9687;50.836;12.060;2023-09-18T02:25:58;22.20;71.40
19110;DHT22;9687;50.836;12.060;2023-09-18T02:28:43;22.30;71.50
19110;DHT22;9687;50.836;12.060;2023-09-18T02:31:18;22.30;71.50
19110;DHT22;9687;50.836;12.060;2023-09-18T02:33:50;22.30;71.50
19110;DHT22;9687;50.836;12.060;2023-09-18T02:36:22;22.30;71.50
19110;DHT22;9687;50.836;12.060;2023-09-18T02:38:56;22.20;71.40
19110;DHT22;9687;50.836;12.060;2023-09-18T02:41:30;22.30;71.50
19110;DHT22;9687;50.836;12.060;2023-09-18T02:44:07;22.30;71.50
19110;DHT22;9687;50.836;12.060;2023-09-18T02:46:38;22.30;71.50
19110;DHT22;9687;50.836;12.060;2023-09-18T02:49:09;22.30;71.50
19110;DHT22;9687;50.836;12.060;2023-09-18T02:51:46;22.30;71.50
19110;DHT22;9687;50.836;12.060;2023-09-18T02:54:14;22.20;71.40
19110;DHT22;9687;50.836;12.060;2023-09-18T02:56:42;22.20;71.40
19110;DHT22;9687;50.836;12.060;2023-09-18T02:59:16;22.20;71.40
19110;DHT22;9687;50.836;12.060;2023-09-18T03:01:49;22.10;71.20
19110;DHT22;9687;50.836;12.060;2023-09-18T03:04:21;22.10;71.50
19110;DHT22;9687;50.836;12.060;2023-09-18T03:06:54;22.10;71.60
19110;DHT22;9687;50.836;12.060;2023-09-18T03:09:27;22.00;71.70
19110;DHT22;9687;50.836;12.060;2023-09-18T03:12:00;22.00;71.70
19110;DHT22;9687;50.836;12.060;2023-09-18T03:14:27;22.00;71.80
19110;DHT22;9687;50.836;12.060;2023-09-18T03:16:56;22.00;71.80
19110;DHT22;9687;50.836;12.060;2023-09-18T03:19:29;22.00;71.90
19110;DHT22;9687;50.836;12.060;2023-09-18T03:22:02;22.00;71.80
19110;DHT22;9687;50.836;12.060;2023-09-18T03:24:36;22.10;71.90
19110;DHT22;9687;50.836;12.060;2023-09-18T03:27:12;22.10;71.90
19110;DHT22;9687;50.836;12.060;2023-09-18T03:29:46;22.10;71.90
19110;DHT22;9687;50.836;12.060;2023-09-18T03:32:18;22.10;71.80
19110;DHT22;9687;50.836;12.060;2023-09-18T03:34:50;22.10;71.90
19110;DHT22;9687;50.836;12.060;2023-09-18T03:37:28;22.10;71.80
19110;DHT22;9687;50.836;12.060;2023-09-18T03:40:04;22.20;71.70
19110;DHT22;9687;50.836;12.060;2023-09-18T03:42:34;22.20;71.40
19110;DHT22;9687;50.836;12.060;2023-09-18T03:45:12;22.20;71.40
19110;DHT22;9687;50.836;12.060;2023-09-18T03:47:55;22.20;71.40
19110;DHT22;9687;50.836;12.060;2023-09-18T03:50:23;22.10;71.40
19110;DHT22;9687;50.836;12.060;2023-09-18T03:52:56;22.10;71.60
19110;DHT22;9687;50.836;12.060;2023-09-18T03:55:33;22.00;71.60
19110;DHT22;9687;50.836;12.060;2023-09-18T03:58:03;22.00;71.80
19110;DHT22;9687;50.836;12.060;2023-09-18T04:00:31;22.00;72.00
19110;DHT22;9687;50.836;12.060;2023-09-18T04:03:08;21.90;72.00
19110;DHT22;9687;50.836;12.060;2023-09-18T04:05:37;21.90;72.20
19110;DHT22;9687;50.836;12.060;2023-09-18T04:08:04;21.90;72.40
19110;DHT22;9687;50.836;12.060;2023-09-18T04:10:31;21.80;72.50
19110;DHT22;9687;50.836;12.060;2023-09-18T04:13:11;21.80;72.60
19110;DHT22;9687;50.836;12.060;2023-09-18T04:15:47;21.80;72.60
19110;DHT22;9687;50.836;12.060;2023-09-18T04:18:31;21.80;72.60
19110;DHT22;9687;50.836;12.060;2023-09-18T04:21:05;21.80;72.60
19110;DHT22;9687;50.836;12.060;2023-09-18T04:23:38;21.80;72.60
19110;DHT22;9687;50.836;12.060;2023-09-18T04:26:05;21.80;72.50
19110;DHT22;9687;50.836;12.060;2023-09-18T04:28:33;21.80;72.60
19110;DHT22;9687;50.836;12.060;2023-09-18T04:31:01;21.80;72.50
19110;DHT22;9687;50.836;12.060;2023-09-18T04:33:28;21.80;72.50
19110;DHT22;9687;50.836;12.060;2023-09-18T04:35:55;21.70;72.50
19110;DHT22;9687;50.836;12.060;2023-09-18T04:38:23;21.70;73.40
19110;DHT22;9687;50.836;12.060;2023-09-18T04:40:57;21.70;72.80
19110;DHT22;9687;50.836;12.060;2023-09-18T04:43:24;21.60;72.70
19110;DHT22;9687;50.836;12.060;2023-09-18T04:45:59;21.60;72.80
19110;DHT22;9687;50.836;12.060;2023-09-18T04:48:53;21.60;72.80
19110;DHT22;9687;50.836;12.060;2023-09-18T04:51:32;21.60;73.00
19110;DHT22;9687;50.836;12.060;2023-09-18T04:54:15;21.60;72.90
19110;DHT22;9687;50.836;12.060;2023-09-18T04:56:49;21.60;73.00
19110;DHT22;9687;50.836;12.060;2023-09-18T04:59:25;21.60;73.00
19110;DHT22;9687;50.836;12.060;2023-09-18T05:02:19;21.60;73.10
19110;DHT22;9687;50.836;12.060;2023-09-18T05:05:00;21.60;73.10
19110;DHT22;9687;50.836;12.060;2023-09-18T05:07:41;21.60;73.20
19110;DHT22;9687;50.836;12.060;2023-09-18T05:10:12;21.60;73.20
19110;DHT22;9687;50.836;12.060;2023-09-18T05:12:55;21.60;73.30
19110;DHT22;9687;50.836;12.060;2023-09-18T05:15:25;21.50;73.20
19110;DHT22;9687;50.836;12.060;2023-09-18T05:17:58;21.50;73.30
19110;DHT22;9687;50.836;12.060;2023-09-18T05:20:43;21.50;73.40
19110;DHT22;9687;50.836;12.060;2023-09-18T05:23:16;21.50;73.50
19110;DHT22;9687;50.836;12.060;2023-09-18T05:25:46;21.50;74.10
19110;DHT22;9687;50.836;12.060;2023-09-18T05:28:13;21.50;74.70
19110;DHT22;9687;50.836;12.060;2023-09-18T05:30:41;21.50;74.90
19110;DHT22;9687;50.836;12.060;2023-09-18T05:33:31;21.40;75.10
19110;DHT22;9687;50.836;12.060;2023-09-18T05:36:12;21.30;75.30
19110;DHT22;9687;50.836;12.060;2023-09-18T05:38:39;21.20;75.70
19110;DHT22;9687;50.836;12.060;2023-09-18T05:41:10;21.20;76.00
19110;DHT22;9687;50.836;12.060;2023-09-18T05:43:40;21.10;76.00
19110;DHT22;9687;50.836;12.060;2023-09-18T05:46:08;21.10;76.40
19110;DHT22;9687;50.836;12.060;2023-09-18T05:48:42;21.10;76.70
19110;DHT22;9687;50.836;12.060;2023-09-18T05:51:09;21.10;76.90
19110;DHT22;9687;50.836;12.060;2023-09-18T05:53:37;21.10;77.00
19110;DHT22;9687;50.836;12.060;2023-09-18T05:56:05;21.10;77.20
19110;DHT22;9687;50.836;12.060;2023-09-18T05:58:50;21.10;77.40
19110;DHT22;9687;50.836;12.060;2023-09-18T06:01:19;21.10;77.60
19110;DHT22;9687;50.836;12.060;2023-09-18T06:03:58;21.10;77.90
19110;DHT22;9687;50.836;12.060;2023-09-18T06:06:26;21.10;78.60
19110;DHT22;9687;50.836;12.060;2023-09-18T06:08:54;21.20;78.00
19110;DHT22;9687;50.836;12.060;2023-09-18T06:11:31;21.20;78.20
19110;DHT22;9687;50.836;12.060;2023-09-18T06:14:02;21.20;78.20
19110;DHT22;9687;50.836;12.060;2023-09-18T06:16:37;21.30;78.40
19110;DHT22;9687;50.836;12.060;2023-09-18T06:19:12;21.40;78.20
19110;DHT22;9687;50.836;12.060;2023-09-18T06:21:43;21.50;78.30
19110;DHT22;9687;50.836;12.060;2023-09-18T06:24:15;21.50;78.10
19110;DHT22;9687;50.836;12.060;2023-09-18T06:26:43;21.60;78.40
19110;DHT22;9687;50.836;12.060;2023-09-18T06:29:10;21.70;78.70
19110;DHT22;9687;50.836;12.060;2023-09-18T06:31:44;21.90;78.90
19110;DHT22;9687;50.836;12.060;2023-09-18T06:34:14;21.90;78.70
19110;DHT22;9687;50.836;12.060;2023-09-18T06:37:00;22.00;78.40
19110;DHT22;9687;50.836;12.060;2023-09-18T06:39:29;22.10;78.40
19110;DHT22;9687;50.836;12.060;2023-09-18T06:41:57;22.20;78.40
19110;DHT22;9687;50.836;12.060;2023-09-18T06:44:24;22.30;78.10
19110;DHT22;9687;50.836;12.060;2023-09-18T06:46:53;22.40;78.00
19110;DHT22;9687;50.836;12.060;2023-09-18T06:49:34;22.40;77.90
19110;DHT22;9687;50.836;12.060;2023-09-18T06:52:07;22.40;77.90
19110;DHT22;9687;50.836;12.060;2023-09-18T06:54:34;22.40;78.00
19110;DHT22;9687;50.836;12.060;2023-09-18T06:57:03;22.30;77.10
19110;DHT22;9687;50.836;12.060;2023-09-18T06:59:31;22.30;77.70
19110;DHT22;9687;50.836;12.060;2023-09-18T07:02:04;22.30;77.80
19110;DHT22;9687;50.836;12.060;2023-09-18T07:04:38;22.30;77.80
19110;DHT22;9687;50.836;12.060;2023-09-18T07:07:11;22.20;77.80
19110;DHT22;9687;50.836;12.060;2023-09-18T07:09:59;22.20;77.90
19110;DHT22;9687;50.836;12.060;2023-09-18T07:12:43;22.20;78.10
19110;DHT22;9687;50.836;12.060;2023-09-18T07:15:12;22.20;78.20
19110;DHT22;9687;50.836;12.060;2023-09-18T07:17:44;22.20;78.00
19110;DHT22;9687;50.836;12.060;2023-09-18T07:20:22;22.20;78.00
19110;DHT22;9687;50.836;12.060;2023-09-18T07:22:58;22.20;78.10
19110;DHT22;9687;50.836;12.060;2023-09-18T07:25:27;22.30;78.40
19110;DHT22;9687;50.836;12.060;2023-09-18T07:27:59;22.40;78.80
19110;DHT22;9687;50.836;12.060;2023-09-18T07:30:29;22.60;78.90
19110;DHT22;9687;50.836;12.060;2023-09-18T07:32:58;22.90;78.80
19110;DHT22;9687;50.836;12.060;2023-09-18T07:35:28;23.10;78.10
19110;DHT22;9687;50.836;12.060;2023-09-18T07:37:56;23.30;77.40
19110;DHT22;9687;50.836;12.060;2023-09-18T07:40:23;23.40;77.20
19110;DHT22;9687;50.836;12.060;2023-09-18T07:42:50;23.60;77.40
19110;DHT22;9687;50.836;12.060;2023-09-18T07:45:19;23.80;77.30
19110;DHT22;9687;50.836;12.060;2023-09-18T07:47:47;24.10;76.80
19110;DHT22;9687;50.836;12.060;2023-09-18T07:50:15;24.20;75.80
19110;DHT22;9687;50.836;12.060;2023-09-18T07:52:45;24.40;75.30
19110;DHT22;9687;50.836;12.060;2023-09-18T07:55:13;24.50;74.90
19110;DHT22;9687;50.836;12.060;2023-09-18T07:57:42;24.50;74.50
19110;DHT22;9687;50.836;12.060;2023-09-18T08:00:14;24.60;74.70
19110;DHT22;9687;50.836;12.060;2023-09-18T08:02:48;24.80;74.20
19110;DHT22;9687;50.836;12.060;2023-09-18T08:05:16;25.00;74.40
19110;DHT22;9687;50.836;12.060;2023-09-18T08:07:43;25.30;73.10
19110;DHT22;9687;50.836;12.060;2023-09-18T08:10:29;25.50;71.40
19110;DHT22;9687;50.836;12.060;2023-09-18T08:12:58;25.60;70.60
19110;DHT22;9687;50.836;12.060;2023-09-18T08:15:26;25.50;69.90
19110;DHT22;9687;50.836;12.060;2023-09-18T08:17:56;25.50;69.90
19110;DHT22;9687;50.836;12.060;2023-09-18T08:20:25;25.50;69.70
19110;DHT22;9687;50.836;12.060;2023-09-18T08:22:54;25.30;68.80
19110;DHT22;9687;50.836;12.060;2023-09-18T08:25:32;25.20;69.50
19110;DHT22;9687;50.836;12.060;2023-09-18T08:28:34;25.10;69.50
19110;DHT22;9687;50.836;12.060;2023-09-18T08:31:04;25.00;69.80
19110;DHT22;9687;50.836;12.060;2023-09-18T08:33:50;24.90;70.00
19110;DHT22;9687;50.836;12.060;2023-09-18T08:36:25;24.80;69.90
19110;DHT22;9687;50.836;12.060;2023-09-18T08:38:59;24.70;70.00
19110;DHT22;9687;50.836;12.060;2023-09-18T08:41:41;24.70;70.50
19110;DHT22;9687;50.836;12.060;2023-09-18T08:44:09;24.60;70.30
19110;DHT22;9687;50.836;12.060;2023-09-18T08:46:38;24.60;70.40
19110;DHT22;9687;50.836;12.060;2023-09-18T08:49:06;24.50;70.50
19110;DHT22;9687;50.836;12.060;2023-09-18T08:51:35;24.50;70.70
19110;DHT22;9687;50.836;12.060;2023-09-18T08:54:04;24.50;70.90
19110;DHT22;9687;50.836;12.060;2023-09-18T08:56:33;24.50;70.90
19110;DHT22;9687;50.836;12.060;2023-09-18T08:59:08;24.40;70.90
19110;DHT22;9687;50.836;12.060;2023-09-18T09:01:42;24.50;71.10
19110;DHT22;9687;50.836;12.060;2023-09-18T09:04:09;24.40;71.00
19110;DHT22;9687;50.836;12.060;2023-09-18T09:06:36;24.50;71.10
19110;DHT22;9687;50.836;12.060;2023-09-18T09:09:26;24.50;71.00
19110;DHT22;9687;50.836;12.060;2023-09-18T09:11:55;24.50;71.00
19110;DHT22;9687;50.836;12.060;2023-09-18T09:14:23;24.50;71.20
19110;DHT22;9687;50.836;12.060;2023-09-18T09:16:54;24.50;71.20
19110;DHT22;9687;50.836;12.060;2023-09-18T09:19:28;24.50;71.30
19110;DHT22;9687;50.836;12.060;2023-09-18T09:22:04;24.50;71.30
19110;DHT22;9687;50.836;12.060;2023-09-18T09:24:37;24.50;71.40
19110;DHT22;9687;50.836;12.060;2023-09-18T09:27:04;24.50;71.50
19110;DHT22;9687;50.836;12.060;2023-09-18T09:29:33;24.60;71.60
19110;DHT22;9687;50.836;12.060;2023-09-18T09:32:13;24.60;71.60
19110;DHT22;9687;50.836;12.060;2023-09-18T09:34:42;24.60;71.60
19110;DHT22;9687;50.836;12.060;2023-09-18T09:37:10;24.60;71.60
19110;DHT22;9687;50.836;12.060;2023-09-18T09:39:48;24.60;71.60
19110;DHT22;9687;50.836;12.060;2023-09-18T09:42:16;24.70;71.70
19110;DHT22;9687;50.836;12.060;2023-09-18T09:45:00;24.70;71.70
19110;DHT22;9687;50.836;12.060;2023-09-18T09:47:33;24.70;71.80
19110;DHT22;9687;50.836;12.060;2023-09-18T09:50:05;24.80;71.90
19110;DHT22;9687;50.836;12.060;2023-09-18T09:52:33;24.80;71.90
19110;DHT22;9687;50.836;12.060;2023-09-18T09:55:08;24.90;71.90
19110;DHT22;9687;50.836;12.060;2023-09-18T09:57:47;24.90;71.90
19110;DHT22;9687;50.836;12.060;2023-09-18T10:00:18;25.00;71.90
19110;DHT22;9687;50.836;12.060;2023-09-18T10:03:14;25.00;71.70
19110;DHT22;9687;50.836;12.060;2023-09-18T10:05:43;25.10;71.50
19110;DHT22;9687;50.836;12.060;2023-09-18T10:08:11;25.20;71.60
19110;DHT22;9687;50.836;12.060;2023-09-18T10:10:45;25.30;71.60
19110;DHT22;9687;50.836;12.060;2023-09-18T10:13:31;25.30;71.50
19110;DHT22;9687;50.836;12.060;2023-09-18T10:16:04;25.40;71.50
19110;DHT22;9687;50.836;12.060;2023-09-18T10:18:38;25.50;71.50
19110;DHT22;9687;50.836;12.060;2023-09-18T10:21:14;25.60;71.50
19110;DHT22;9687;50.836;12.060;2023-09-18T10:23:50;25.70;71.50
19110;DHT22;9687;50.836;12.060;2023-09-18T10:26:23;25.70;71.30
19110;DHT22;9687;50.836;12.060;2023-09-18T10:28:53;25.80;71.20
19110;DHT22;9687;50.836;12.060;2023-09-18T10:31:26;25.90;71.10
19110;DHT22;9687;50.836;12.060;2023-09-18T10:33:55;26.00;71.10
19110;DHT22;9687;50.836;12.060;2023-09-18T10:36:23;26.10;71.00
19110;DHT22;9687;50.836;12.060;2023-09-18T10:38:51;26.10;70.70
19110;DHT22;9687;50.836;12.060;2023-09-18T10:41:20;26.20;70.50
19110;DHT22;9687;50.836;12.060;2023-09-18T10:43:51;26.20;70.30
19110;DHT22;9687;50.836;12.060;2023-09-18T10:46:26;26.20;70.20
19110;DHT22;9687;50.836;12.060;2023-09-18T10:48:54;26.30;70.20
19110;DHT22;9687;50.836;12.060;2023-09-18T10:51:23;26.30;70.10
19110;DHT22;9687;50.836;12.060;2023-09-18T10:53:51;26.20;69.60
19110;DHT22;9687;50.836;12.060;2023-09-18T10:56:19;26.30;69.80
19110;DHT22;9687;50.836;12.060;2023-09-18T10:58:48;26.20;69.80
19110;DHT22;9687;50.836;12.060;2023-09-18T11:01:23;26.20;69.90
19110;DHT22;9687;50.836;12.060;2023-09-18T11:03:59;26.20;70.00
19110;DHT22;9687;50.836;12.060;2023-09-18T11:06:29;26.20;69.90
19110;DHT22;9687;50.836;12.060;2023-09-18T11:09:00;26.20;69.80
19110;DHT22;9687;50.836;12.060;2023-09-18T11:11:31;26.20;69.60
19110;DHT22;9687;50.836;12.060;2023-09-18T11:14:02;26.20;69.40
19110;DHT22;9687;50.836;12.060;2023-09-18T11:16:37;26.20;69.90
19110;DHT22;9687;50.836;12.060;2023-09-18T11:19:09;26.20;68.80
19110;DHT22;9687;50.836;12.060;2023-09-18T11:21:38;26.20;68.80
19110;DHT22;9687;50.836;12.060;2023-09-18T11:24:07;26.10;68.60
19110;DHT22;9687;50.836;12.060;2023-09-18T11:26:46;26.10;68.60
19110;DHT22;9687;50.836;12.060;2023-09-18T11:29:14;26.10;68.40
19110;DHT22;9687;50.836;12.060;2023-09-18T11:31:47;26.00;68.40
19110;DHT22;9687;50.836;12.060;2023-09-18T11:34:32;26.00;68.30
19110;DHT22;9687;50.836;12.060;2023-09-18T11:37:18;25.90;68.30
19110;DHT22;9687;50.836;12.060;2023-09-18T11:39:47;25.90;68.30
19110;DHT22;9687;50.836;12.060;2023-09-18T11:42:17;25.90;68.30
19110;DHT22;9687;50.836;12.060;2023-09-18T11:44:45;25.80;68.30
19110;DHT22;9687;50.836;12.060;2023-09-18T11:47:13;25.70;68.30
19110;DHT22;9687;50.836;12.060;2023-09-18T11:49:56;25.70;68.40
19110;DHT22;9687;50.836;12.060;2023-09-18T11:52:37;25.70;68.50
19110;DHT22;9687;50.836;12.060;2023-09-18T11:55:07;25.60;68.50
19110;DHT22;9687;50.836;12.060;2023-09-18T11:57:39;25.50;68.60
19110;DHT22;9687;50.836;12.060;2023-09-18T12:00:18;25.50;68.90
19110;DHT22;9687;50.836;12.060;2023-09-18T12:02:54;25.50;68.80
19110;DHT22;9687;50.836;12.060;2023-09-18T12:05:27;25.40;68.80
19110;DHT22;9687;50.836;12.060;2023-09-18T12:07:57;25.40;69.00
19110;DHT22;9687;50.836;12.060;2023-09-18T12:10:26;25.40;69.30
19110;DHT22;9687;50.836;12.060;2023-09-18T12:13:11;25.40;69.50
19110;DHT22;9687;50.836;12.060;2023-09-18T12:15:40;25.40;69.60
19110;DHT22;9687;50.836;12.060;2023-09-18T12:18:09;25.40;69.80
19110;DHT22;9687;50.836;12.060;2023-09-18T12:20:43;25.30;69.90
19110;DHT22;9687;50.836;12.060;2023-09-18T12:23:16;25.40;70.20
19110;DHT22;9687;50.836;12.060;2023-09-18T12:25:45;25.30;70.30
19110;DHT22;9687;50.836;12.060;2023-09-18T12:28:14;25.30;70.50
19110;DHT22;9687;50.836;12.060;2023-09-18T12:30:44;25.30;70.60
19110;DHT22;9687;50.836;12.060;2023-09-18T12:33:13;25.30;70.90
19110;DHT22;9687;50.836;12.060;2023-09-18T12:35:42;25.30;70.90
19110;DHT22;9687;50.836;12.060;2023-09-18T12:38:14;25.30;71.00
19110;DHT22;9687;50.836;12.060;2023-09-18T12:40:46;25.30;71.20
19110;DHT22;9687;50.836;12.060;2023-09-18T12:43:16;25.20;71.30
19110;DHT22;9687;50.836;12.060;2023-09-18T12:45:44;25.30;71.50
19110;DHT22;9687;50.836;12.060;2023-09-18T12:48:19;25.20;71.60
19110;DHT22;9687;50.836;12.060;2023-09-18T12:50:52;25.20;71.60
19110;DHT22;9687;50.836;12.060;2023-09-18T12:53:21;25.20;71.80
19110;DHT22;9687;50.836;12.060;2023-09-18T12:55:52;25.20;72.00
19110;DHT22;9687;50.836;12.060;2023-09-18T12:58:20;25.20;72.20
19110;DHT22;9687;50.836;12.060;2023-09-18T13:00:50;25.10;72.20
19110;DHT22;9687;50.836;12.060;2023-09-18T13:03:18;25.10;72.30
19110;DHT22;9687;50.836;12.060;2023-09-18T13:05:45;25.10;72.50
19110;DHT22;9687;50.836;12.060;2023-09-18T13:14:13;25.10;73.80
19110;DHT22;9687;50.836;12.060;2023-09-18T13:17:02;25.00;73.10
19110;DHT22;9687;50.836;12.060;2023-09-18T13:19:31;25.00;73.60
19110;DHT22;9687;50.836;12.060;2023-09-18T13:21:59;24.90;73.70
19110;DHT22;9687;50.836;12.060;2023-09-18T13:24:27;24.90;73.90
19110;DHT22;9687;50.836;12.060;2023-09-18T13:26:56;24.90;74.30
19110;DHT22;9687;50.836;12.060;2023-09-18T13:29:28;24.90;74.30
19110;DHT22;9687;50.836;12.060;2023-09-18T13:32:00;24.80;74.20
19110;DHT22;9687;50.836;12.060;2023-09-18T13:34:30;24.80;74.30
19110;DHT22;9687;50.836;12.060;2023-09-18T13:36:58;24.80;74.70
19110;DHT22;9687;50.836;12.060;2023-09-18T13:39:26;24.80;75.00
19110;DHT22;9687;50.836;12.060;2023-09-18T13:41:53;24.70;75.10
19110;DHT22;9687;50.836;12.060;2023-09-18T13:44:24;24.70;75.40
19110;DHT22;9687;50.836;12.060;2023-09-18T13:46:54;24.70;75.90
19110;DHT22;9687;50.836;12.060;2023-09-18T13:49:24;24.60;76.30
19110;DHT22;9687;50.836;12.060;2023-09-18T13:51:55;24.50;76.70
19110;DHT22;9687;50.836;12.060;2023-09-18T13:54:23;24.50;76.90
19110;DHT22;9687;50.836;12.060;2023-09-18T13:56:51;24.40;77.10
19110;DHT22;9687;50.836;12.060;2023-09-18T13:59:21;24.40;77.40
19110;DHT22;9687;50.836;12.060;2023-09-18T14:01:49;24.40;77.90
19110;DHT22;9687;50.836;12.060;2023-09-18T14:04:21;24.40;78.10
19110;DHT22;9687;50.836;12.060;2023-09-18T14:06:49;24.30;78.30
19110;DHT22;9687;50.836;12.060;2023-09-18T14:09:19;24.30;78.60
19110;DHT22;9687;50.836;12.060;2023-09-18T14:11:59;24.30;78.90
19110;DHT22;9687;50.836;12.060;2023-09-18T14:14:26;24.30;79.20
19110;DHT22;9687;50.836;12.060;2023-09-18T14:16:54;24.20;79.30
19110;DHT22;9687;50.836;12.060;2023-09-18T14:19:27;24.20;79.30
19110;DHT22;9687;50.836;12.060;2023-09-18T14:22:08;24.20;79.70
19110;DHT22;9687;50.836;12.060;2023-09-18T14:24:35;24.20;80.00
19110;DHT22;9687;50.836;12.060;2023-09-18T14:27:03;24.20;80.40
19110;DHT22;9687;50.836;12.060;2023-09-18T14:29:33;24.20;80.60
19110;DHT22;9687;50.836;12.060;2023-09-18T14:32:00;24.20;80.90
19110;DHT22;9687;50.836;12.060;2023-09-18T14:34:30;24.20;81.30
19110;DHT22;9687;50.836;12.060;2023-09-18T14:37:00;24.20;81.30
19110;DHT22;9687;50.836;12.060;2023-09-18T14:39:29;24.20;81.50
19110;DHT22;9687;50.836;12.060;2023-09-18T14:41:57;24.10;81.60
19110;DHT22;9687;50.836;12.060;2023-09-18T14:44:25;24.10;81.70
19110;DHT22;9687;50.836;12.060;2023-09-18T14:46:53;24.10;82.00
19110;DHT22;9687;50.836;12.060;2023-09-18T14:49:20;24.00;82.00
19110;DHT22;9687;50.836;12.060;2023-09-18T14:51:51;24.00;82.30
19110;DHT22;9687;50.836;12.060;2023-09-18T14:54:20;23.90;82.40
19110;DHT22;9687;50.836;12.060;2023-09-18T14:56:48;23.80;82.40
19110;DHT22;9687;50.836;12.060;2023-09-18T14:59:15;23.80;82.70
19110;DHT22;9687;50.836;12.060;2023-09-18T15:02:00;23.70;82.80
19110;DHT22;9687;50.836;12.060;2023-09-18T15:04:37;23.60;83.00
19110;DHT22;9687;50.836;12.060;2023-09-18T15:07:06;23.60;83.10
19110;DHT22;9687;50.836;12.060;2023-09-18T15:09:41;23.60;83.20
19110;DHT22;9687;50.836;12.060;2023-09-18T15:12:15;23.50;83.30
19110;DHT22;9687;50.836;12.060;2023-09-18T15:14:42;23.50;83.40
19110;DHT22;9687;50.836;12.060;2023-09-18T15:17:09;23.40;83.40
19110;DHT22;9687;50.836;12.060;2023-09-18T15:19:37;23.40;83.40
19110;DHT22;9687;50.836;12.060;2023-09-18T15:22:14;23.40;83.50
19110;DHT22;9687;50.836;12.060;2023-09-18T15:24:48;23.30;83.60
19110;DHT22;9687;50.836;12.060;2023-09-18T15:27:17;23.30;83.70
19110;DHT22;9687;50.836;12.060;2023-09-18T15:29:44;23.30;84.00
19110;DHT22;9687;50.836;12.060;2023-09-18T15:32:18;23.30;84.00
19110;DHT22;9687;50.836;12.060;2023-09-18T15:35:04;23.30;84.00
19110;DHT22;9687;50.836;12.060;2023-09-18T15:37:34;23.30;84.00
19110;DHT22;9687;50.836;12.060;2023-09-18T15:40:01;23.30;84.10
19110;DHT22;9687;50.836;12.060;2023-09-18T15:42:30;23.30;84.10
19110;DHT22;9687;50.836;12.060;2023-09-18T15:45:07;23.30;84.00
19110;DHT22;9687;50.836;12.060;2023-09-18T15:47:42;23.30;84.00
19110;DHT22;9687;50.836;12.060;2023-09-18T15:50:15;23.30;84.40
19110;DHT22;9687;50.836;12.060;2023-09-18T15:52:44;23.20;84.60
19110;DHT22;9687;50.836;12.060;2023-09-18T15:55:15;23.10;84.90
19110;DHT22;9687;50.836;12.060;2023-09-18T15:58:00;23.10;85.10
19110;DHT22;9687;50.836;12.060;2023-09-18T16:00:28;23.00;85.40
19110;DHT22;9687;50.836;12.060;2023-09-18T16:03:13;23.00;85.60
19110;DHT22;9687;50.836;12.060;2023-09-18T16:05:41;22.90;85.70
19110;DHT22;9687;50.836;12.060;2023-09-18T16:08:10;22.90;86.10
19110;DHT22;9687;50.836;12.060;2023-09-18T16:10:55;22.90;86.40